createdAt,value
2023-05-21T00:01:32.285Z,11.98
2023-05-21T00:04:17.770Z,12.01
2023-05-21T00:07:03.825Z,12.01
2023-05-21T00:09:48.874Z,12.00
2023-05-21T00:12:34.147Z,11.85
2023-05-21T00:15:19.459Z,11.94
2023-05-21T00:18:05.896Z,11.92
2023-05-21T00:20:51.830Z,11.96
2023-05-21T00:23:37.747Z,11.92
2023-05-21T00:26:26.521Z,11.94
2023-05-21T00:29:11.807Z,11.94
2023-05-21T00:31:57.140Z,11.98
2023-05-21T00:34:42.324Z,11.96
2023-05-21T00:37:29.937Z,12.00
2023-05-21T00:40:16.348Z,11.99
2023-05-21T00:43:02.089Z,11.99
2023-05-21T00:45:48.607Z,12.00
2023-05-21T00:48:34.546Z,12.01
2023-05-21T00:51:21.651Z,12.04
2023-05-21T00:54:08.255Z,12.06
2023-05-21T00:56:53.760Z,12.02
2023-05-21T00:59:39.126Z,11.94
2023-05-21T01:02:26.098Z,11.98
2023-05-21T01:05:11.753Z,12.00
2023-05-21T01:07:58.662Z,12.03
2023-05-21T01:10:44.519Z,12.02
2023-05-21T01:13:31.507Z,12.01
2023-05-21T01:16:17.924Z,12.03
2023-05-21T01:19:05.634Z,12.06
2023-05-21T01:21:57.533Z,12.03
2023-05-21T01:24:48.290Z,12.00
2023-05-21T01:27:33.667Z,12.03
2023-05-21T01:30:21.254Z,12.00
2023-05-21T01:33:18.498Z,12.02
2023-05-21T01:36:14.168Z,12.05
2023-05-21T01:39:09.854Z,12.04
2023-05-21T01:41:56.422Z,12.05
2023-05-21T01:44:42.721Z,12.02
2023-05-21T01:47:31.470Z,12.06
2023-05-21T01:50:18.500Z,12.07
2023-05-21T01:53:06.091Z,12.02
2023-05-21T01:55:51.227Z,11.99
2023-05-21T01:58:36.343Z,12.04
2023-05-21T02:01:21.835Z,12.04
2023-05-21T02:04:07.406Z,12.02
2023-05-21T02:06:54.925Z,12.01
2023-05-21T02:09:40.744Z,12.02
2023-05-21T02:12:28.323Z,11.96
2023-05-21T02:15:20.037Z,11.93
2023-05-21T02:18:05.421Z,11.98
2023-05-21T02:20:50.913Z,11.98
2023-05-21T02:23:36.907Z,11.96
2023-05-21T02:26:22.737Z,11.89
2023-05-21T02:29:07.998Z,11.92
2023-05-21T02:31:52.961Z,11.89
2023-05-21T02:34:42.298Z,11.88
2023-05-21T02:37:28.330Z,11.84
2023-05-21T02:40:13.733Z,11.84
2023-05-21T02:42:58.969Z,11.83
2023-05-21T02:45:44.012Z,11.81
2023-05-21T02:48:29.693Z,11.77
2023-05-21T02:51:14.777Z,11.75
2023-05-21T02:53:59.824Z,11.76
2023-05-21T02:56:45.296Z,11.75
2023-05-21T02:59:30.837Z,11.78
2023-05-21T03:02:17.439Z,11.77
2023-05-21T03:05:03.613Z,11.77
2023-05-21T03:07:48.656Z,11.82
2023-05-21T03:10:33.937Z,11.82
2023-05-21T03:13:19.154Z,11.86
2023-05-21T03:16:05.376Z,11.90
2023-05-21T03:18:50.668Z,11.92
2023-05-21T03:21:36.283Z,11.92
2023-05-21T03:24:22.024Z,11.91
2023-05-21T03:27:08.256Z,11.91
2023-05-21T03:29:55.778Z,11.96
2023-05-21T03:32:41.554Z,12.01
2023-05-21T03:35:26.697Z,12.02
2023-05-21T03:38:11.963Z,12.02
2023-05-21T03:40:57.370Z,12.06
2023-05-21T03:43:42.758Z,12.10
2023-05-21T03:46:28.337Z,12.17
2023-05-21T03:49:14.482Z,12.21
2023-05-21T03:51:59.892Z,12.27
2023-05-21T03:54:45.684Z,12.25
2023-05-21T03:57:30.946Z,12.36
2023-05-21T04:00:16.286Z,12.34
2023-05-21T04:03:01.760Z,12.45
2023-05-21T04:05:47.366Z,12.48
2023-05-21T04:08:32.719Z,12.49
2023-05-21T04:11:17.974Z,12.49
2023-05-21T04:13:48.222Z,12.51
2023-05-21T04:16:19.502Z,12.52
2023-05-21T04:18:46.969Z,12.57
2023-05-21T04:21:14.070Z,12.52
2023-05-21T04:23:40.929Z,12.58
2023-05-21T04:26:07.888Z,12.60
2023-05-21T04:28:35.451Z,12.69
2023-05-21T04:31:02.748Z,12.63
2023-05-21T04:33:30.432Z,12.66
2023-05-21T04:35:57.812Z,12.74
2023-05-21T04:38:24.775Z,12.76
2023-05-21T04:40:51.937Z,12.81
2023-05-21T04:43:25.559Z,12.82
2023-05-21T04:45:54.723Z,12.88
2023-05-21T04:48:26.875Z,13.00
2023-05-21T04:50:54.099Z,13.15
2023-05-21T04:53:20.947Z,13.35
2023-05-21T04:55:48.102Z,13.62
2023-05-21T04:58:17.985Z,13.74
2023-05-21T05:00:51.688Z,13.79
2023-05-21T05:03:18.777Z,13.99
2023-05-21T05:05:46.262Z,14.08
2023-05-21T05:08:15.529Z,14.20
2023-05-21T05:10:43.042Z,14.35
2023-05-21T05:13:09.918Z,14.39
2023-05-21T05:15:37.009Z,14.41
2023-05-21T05:18:04.144Z,14.50
2023-05-21T05:20:31.203Z,14.69
2023-05-21T05:22:57.996Z,14.82
2023-05-21T05:25:24.920Z,15.13
2023-05-21T05:27:51.668Z,15.43
2023-05-21T05:30:18.498Z,15.91
2023-05-21T05:32:45.701Z,16.03
2023-05-21T05:35:12.964Z,15.98
2023-05-21T05:37:39.725Z,16.17
2023-05-21T05:40:08.114Z,16.29
2023-05-21T05:42:35.014Z,15.99
2023-05-21T05:45:01.877Z,16.12
2023-05-21T05:47:28.764Z,16.24
2023-05-21T05:49:55.684Z,16.18
2023-05-21T05:52:22.649Z,16.47
2023-05-21T05:54:49.491Z,16.47
2023-05-21T05:57:16.443Z,16.85
2023-05-21T05:59:43.264Z,16.86
2023-05-21T06:02:10.410Z,16.61
2023-05-21T06:04:37.251Z,16.66
2023-05-21T06:07:04.175Z,16.52
2023-05-21T06:09:31.294Z,16.64
2023-05-21T06:11:58.150Z,16.71
2023-05-21T06:14:24.991Z,16.76
2023-05-21T06:16:51.949Z,16.91
2023-05-21T06:19:19.072Z,17.16
2023-05-21T06:21:46.006Z,17.44
2023-05-21T06:24:12.893Z,17.76
2023-05-21T06:26:39.730Z,18.05
2023-05-21T06:29:06.905Z,18.10
2023-05-21T06:31:34.254Z,18.26
2023-05-21T06:34:01.374Z,18.24
2023-05-21T06:36:30.157Z,18.15
2023-05-21T06:38:57.255Z,18.46
2023-05-21T06:41:24.328Z,18.66
2023-05-21T06:43:51.442Z,18.99
2023-05-21T06:46:18.523Z,19.23
2023-05-21T06:48:46.428Z,19.26
2023-05-21T06:51:13.306Z,19.37
2023-05-21T06:53:40.317Z,19.60
2023-05-21T06:56:07.385Z,19.38
2023-05-21T06:58:34.255Z,19.50
2023-05-21T07:01:01.738Z,19.52
2023-05-21T07:03:28.775Z,19.65
2023-05-21T07:05:57.065Z,20.07
2023-05-21T07:08:23.951Z,20.22
2023-05-21T07:10:50.827Z,19.80
2023-05-21T07:13:17.733Z,19.61
2023-05-21T07:15:44.534Z,19.74
2023-05-21T07:18:12.114Z,20.15
2023-05-21T07:20:38.957Z,20.41
2023-05-21T07:23:05.892Z,21.08
2023-05-21T07:25:32.765Z,21.20
2023-05-21T07:27:59.569Z,21.33
2023-05-21T07:30:26.549Z,21.75
2023-05-21T07:32:53.366Z,22.27
2023-05-21T07:35:20.518Z,22.16
2023-05-21T07:37:48.073Z,22.47
2023-05-21T07:40:14.955Z,22.24
2023-05-21T07:42:41.790Z,22.43
2023-05-21T07:45:08.924Z,22.62
2023-05-21T07:47:35.960Z,22.44
2023-05-21T07:50:02.954Z,22.13
2023-05-21T07:52:29.909Z,22.18
2023-05-21T07:54:56.740Z,21.96
2023-05-21T07:57:23.585Z,22.21
2023-05-21T07:59:51.154Z,22.03
2023-05-21T08:02:17.925Z,22.04
2023-05-21T08:04:44.845Z,21.90
2023-05-21T08:07:13.773Z,21.82
2023-05-21T08:09:40.782Z,21.70
2023-05-21T08:12:07.826Z,21.89
2023-05-21T08:14:34.695Z,22.03
2023-05-21T08:17:01.531Z,21.96
2023-05-21T08:19:28.519Z,21.89
2023-05-21T08:21:55.730Z,22.49
2023-05-21T08:24:23.696Z,22.49
2023-05-21T08:26:50.964Z,22.67
2023-05-21T08:29:17.782Z,22.41
2023-05-21T08:31:44.725Z,22.66
2023-05-21T08:34:11.556Z,22.67
2023-05-21T08:36:38.625Z,22.98
2023-05-21T08:39:05.348Z,23.12
2023-05-21T08:41:35.250Z,22.98
2023-05-21T08:44:02.903Z,22.97
2023-05-21T08:46:34.807Z,22.67
2023-05-21T08:49:03.480Z,23.05
2023-05-21T08:51:31.439Z,22.97
2023-05-21T08:54:01.618Z,23.14
2023-05-21T08:56:29.448Z,23.11
2023-05-21T08:58:56.652Z,23.22
2023-05-21T09:01:26.448Z,22.84
2023-05-21T09:04:04.879Z,22.90
2023-05-21T09:06:35.507Z,23.29
2023-05-21T09:09:30.037Z,23.10
2023-05-21T09:11:56.854Z,23.18
2023-05-21T09:14:24.582Z,23.50
2023-05-21T09:16:51.644Z,23.72
2023-05-21T09:19:22.007Z,23.34
2023-05-21T09:21:51.667Z,23.35
2023-05-21T09:24:23.097Z,24.01
2023-05-21T09:26:50.420Z,23.87
2023-05-21T09:29:17.263Z,24.08
2023-05-21T09:31:47.898Z,24.20
2023-05-21T09:34:15.171Z,24.25
2023-05-21T09:36:41.937Z,24.87
2023-05-21T09:39:08.796Z,24.76
2023-05-21T09:41:36.826Z,25.36
2023-05-21T09:44:04.288Z,25.79
2023-05-21T09:46:41.841Z,26.35
2023-05-21T09:49:26.424Z,26.21
2023-05-21T09:51:58.026Z,26.52
2023-05-21T09:54:26.499Z,27.02
2023-05-21T09:56:53.712Z,26.97
2023-05-21T09:59:21.218Z,27.36
2023-05-21T10:01:52.243Z,27.31
2023-05-21T10:04:20.077Z,27.29
2023-05-21T10:06:48.279Z,27.74
2023-05-21T10:09:18.901Z,27.95
2023-05-21T10:11:49.171Z,27.53
2023-05-21T10:14:25.435Z,26.98
2023-05-21T10:16:54.393Z,26.98
2023-05-21T10:19:23.661Z,26.95
2023-05-21T10:21:52.814Z,27.04
2023-05-21T10:24:20.141Z,27.39
2023-05-21T10:26:47.970Z,27.51
2023-05-21T10:29:18.145Z,27.27
2023-05-21T10:31:49.994Z,27.69
2023-05-21T10:34:17.657Z,27.53
2023-05-21T10:36:45.986Z,27.68
2023-05-21T10:39:14.539Z,27.55
2023-05-21T10:42:00.000Z,27.05
2023-05-21T10:44:52.273Z,27.57
2023-05-21T10:47:36.315Z,27.34
2023-05-21T10:50:21.941Z,27.51
2023-05-21T10:52:58.069Z,27.28
2023-05-21T10:56:02.302Z,26.99
2023-05-21T10:59:00.965Z,26.77
2023-05-21T11:01:34.066Z,26.49
2023-05-21T11:04:01.842Z,26.42
2023-05-21T11:06:28.703Z,26.35
2023-05-21T11:08:55.975Z,26.38
2023-05-21T11:11:51.680Z,26.32
2023-05-21T11:14:35.097Z,26.55
2023-05-21T11:17:08.214Z,26.38
2023-05-21T11:19:43.865Z,26.15
2023-05-21T11:22:21.529Z,26.20
2023-05-21T11:24:51.178Z,26.12
2023-05-21T11:27:42.208Z,26.05
2023-05-21T11:30:19.633Z,26.11
2023-05-21T11:33:10.142Z,26.31
2023-05-21T11:35:46.278Z,26.46
2023-05-21T11:38:13.194Z,26.24
2023-05-21T11:40:50.727Z,26.23
2023-05-21T11:43:18.610Z,26.31
2023-05-21T11:45:47.331Z,26.07
2023-05-21T11:48:14.501Z,25.98
2023-05-21T11:50:42.467Z,25.90
2023-05-21T11:53:12.224Z,25.88
2023-05-21T11:55:43.622Z,25.69
2023-05-21T11:58:14.409Z,25.60
2023-05-21T12:00:41.337Z,25.68
2023-05-21T12:03:12.763Z,25.93
2023-05-21T12:05:49.806Z,25.82
2023-05-21T12:08:25.402Z,25.67
2023-05-21T12:10:59.997Z,25.66
2023-05-21T12:13:27.835Z,25.74
2023-05-21T12:15:54.826Z,25.94
2023-05-21T12:18:22.034Z,25.94
2023-05-21T12:20:48.951Z,26.12
2023-05-21T12:23:25.688Z,26.31
2023-05-21T12:25:53.841Z,26.63
2023-05-21T12:28:22.283Z,26.73
2023-05-21T12:30:49.231Z,26.87
2023-05-21T12:33:17.953Z,27.55
2023-05-21T12:35:50.467Z,27.53
2023-05-21T12:38:17.717Z,27.68
2023-05-21T12:40:45.757Z,28.11
2023-05-21T12:43:12.976Z,27.93
2023-05-21T12:45:39.940Z,27.93
2023-05-21T12:48:06.887Z,27.95
2023-05-21T12:50:39.088Z,28.63
2023-05-21T12:53:09.438Z,28.42
2023-05-21T12:55:36.212Z,28.52
2023-05-21T12:58:05.557Z,29.08
2023-05-21T13:00:33.301Z,29.00
2023-05-21T13:03:02.075Z,28.85
2023-05-21T13:05:29.138Z,29.05
2023-05-21T13:07:56.012Z,28.59
2023-05-21T13:10:22.822Z,29.65
2023-05-21T13:12:49.692Z,28.80
2023-05-21T13:15:16.908Z,28.60
2023-05-21T13:17:43.999Z,28.72
2023-05-21T13:20:23.705Z,28.44
2023-05-21T13:22:51.956Z,28.37
2023-05-21T13:25:21.512Z,28.15
2023-05-21T13:27:50.055Z,28.37
2023-05-21T13:30:17.489Z,28.18
2023-05-21T13:32:45.001Z,28.18
2023-05-21T13:35:12.677Z,28.44
2023-05-21T13:37:40.411Z,28.26
2023-05-21T13:40:11.195Z,27.93
2023-05-21T13:42:38.890Z,28.18
2023-05-21T13:45:10.983Z,28.01
2023-05-21T13:47:40.447Z,28.28
2023-05-21T13:50:08.831Z,28.17
2023-05-21T13:52:36.445Z,28.35
2023-05-21T13:55:03.632Z,28.34
2023-05-21T13:57:31.139Z,28.01
2023-05-21T13:59:59.199Z,27.84
2023-05-21T14:02:26.394Z,28.13
2023-05-21T14:04:53.796Z,27.98
2023-05-21T14:07:21.564Z,27.72
2023-05-21T14:09:48.607Z,27.61
2023-05-21T14:12:15.801Z,27.55
2023-05-21T14:14:42.556Z,27.81
2023-05-21T14:17:09.355Z,27.34
2023-05-21T14:19:36.599Z,27.37
2023-05-21T14:22:03.616Z,26.77
2023-05-21T14:24:30.455Z,27.28
2023-05-21T14:26:57.496Z,26.76
2023-05-21T14:29:24.713Z,27.04
2023-05-21T14:31:51.680Z,26.87
2023-05-21T14:34:18.737Z,26.69
2023-05-21T14:36:45.478Z,26.90
2023-05-21T14:39:12.278Z,26.76
2023-05-21T14:41:39.751Z,27.20
2023-05-21T14:44:06.652Z,27.26
2023-05-21T14:46:33.652Z,27.09
2023-05-21T14:49:00.823Z,27.16
2023-05-21T14:51:27.673Z,27.07
2023-05-21T14:53:55.731Z,27.25
2023-05-21T14:56:23.449Z,27.37
2023-05-21T14:58:50.270Z,27.00
2023-05-21T15:01:17.279Z,26.82
2023-05-21T15:03:44.219Z,26.54
2023-05-21T15:06:11.003Z,26.65
2023-05-21T15:08:37.859Z,26.42
2023-05-21T15:11:07.515Z,26.08
2023-05-21T15:13:34.510Z,25.93
2023-05-21T15:16:01.529Z,25.83
2023-05-21T15:18:29.671Z,25.53
2023-05-21T15:20:56.525Z,25.90
2023-05-21T15:23:23.303Z,25.80
2023-05-21T15:25:50.298Z,25.46
2023-05-21T15:28:17.118Z,25.44
2023-05-21T15:30:44.026Z,25.25
2023-05-21T15:33:11.530Z,25.02
2023-05-21T15:35:39.034Z,24.99
2023-05-21T15:38:06.315Z,25.03
2023-05-21T15:40:33.404Z,24.87
2023-05-21T15:43:02.741Z,24.71
2023-05-21T15:45:29.588Z,24.78
2023-05-21T15:47:56.436Z,24.55
2023-05-21T15:50:23.324Z,24.38
2023-05-21T15:52:52.952Z,24.47
2023-05-21T15:55:20.494Z,24.47
2023-05-21T15:57:47.412Z,24.53
2023-05-21T16:00:14.758Z,24.46
2023-05-21T16:02:42.050Z,24.30
2023-05-21T16:05:09.490Z,24.26
2023-05-21T16:07:37.903Z,24.40
2023-05-21T16:10:06.304Z,24.20
2023-05-21T16:12:33.281Z,24.16
2023-05-21T16:15:00.253Z,24.05
2023-05-21T16:17:27.190Z,23.94
2023-05-21T16:19:54.284Z,23.85
2023-05-21T16:22:21.276Z,23.94
2023-05-21T16:24:48.243Z,23.81
2023-05-21T16:27:15.260Z,23.72
2023-05-21T16:29:42.660Z,23.62
2023-05-21T16:32:10.607Z,23.79
2023-05-21T16:34:37.566Z,23.71
2023-05-21T16:37:04.709Z,23.68
2023-05-21T16:39:31.565Z,23.66
2023-05-21T16:41:59.877Z,23.64
2023-05-21T16:44:27.500Z,23.61
2023-05-21T16:46:54.417Z,23.39
2023-05-21T16:49:21.183Z,23.32
2023-05-21T16:51:47.987Z,23.44
2023-05-21T16:54:15.017Z,23.36
2023-05-21T16:56:41.914Z,23.21
2023-05-21T16:59:08.726Z,22.96
2023-05-21T17:01:35.559Z,22.99
2023-05-21T17:04:02.765Z,22.86
2023-05-21T17:06:29.636Z,22.92
2023-05-21T17:08:56.585Z,22.84
2023-05-21T17:11:23.459Z,22.67
2023-05-21T17:13:50.424Z,22.67
2023-05-21T17:16:17.230Z,22.65
2023-05-21T17:18:44.226Z,22.65
2023-05-21T17:21:11.019Z,22.66
2023-05-21T17:23:37.987Z,22.63
2023-05-21T17:26:07.623Z,22.60
2023-05-21T17:28:34.821Z,22.55
2023-05-21T17:31:01.912Z,22.56
2023-05-21T17:33:28.977Z,22.34
2023-05-21T17:35:58.564Z,22.19
2023-05-21T17:38:25.413Z,22.14
2023-05-21T17:40:52.193Z,22.09
2023-05-21T17:43:18.947Z,22.02
2023-05-21T17:45:45.928Z,22.02
2023-05-21T17:48:12.950Z,21.93
2023-05-21T17:50:39.782Z,21.91
2023-05-21T17:53:06.588Z,21.76
2023-05-21T17:55:33.376Z,21.84
2023-05-21T17:58:00.412Z,21.72
2023-05-21T18:00:27.239Z,21.77
2023-05-21T18:02:54.040Z,21.58
2023-05-21T18:05:20.909Z,21.58
2023-05-21T18:07:48.186Z,21.60
2023-05-21T18:10:15.569Z,21.47
2023-05-21T18:12:42.466Z,21.38
2023-05-21T18:15:09.703Z,21.40
2023-05-21T18:17:36.482Z,21.37
2023-05-21T18:20:04.433Z,21.09
2023-05-21T18:22:31.224Z,21.09
2023-05-21T18:24:58.092Z,21.10
2023-05-21T18:27:24.817Z,21.03
2023-05-21T18:29:51.613Z,21.13
2023-05-21T18:32:18.511Z,20.84
2023-05-21T18:34:45.387Z,20.90
2023-05-21T18:37:12.150Z,20.87
2023-05-21T18:39:38.896Z,20.77
2023-05-21T18:44:38.863Z,20.60
2023-05-21T18:47:06.052Z,20.51
2023-05-21T18:49:35.315Z,20.37
2023-05-21T18:52:02.265Z,20.32
2023-05-21T18:54:30.351Z,20.40
2023-05-21T18:56:59.734Z,20.32
2023-05-21T18:59:27.989Z,20.10
2023-05-21T19:01:55.077Z,20.19
2023-05-21T19:04:21.879Z,20.13
2023-05-21T19:06:48.705Z,20.00
2023-05-21T19:09:15.500Z,20.07
2023-05-21T19:11:42.254Z,20.03
2023-05-21T19:14:09.064Z,20.04
2023-05-21T19:16:36.021Z,20.01
2023-05-21T19:19:04.040Z,19.94
2023-05-21T19:21:31.436Z,19.87
2023-05-21T19:23:58.724Z,19.80
2023-05-21T19:26:25.642Z,19.83
2023-05-21T19:28:55.516Z,19.67
2023-05-21T19:31:23.283Z,19.74
2023-05-21T19:33:50.707Z,19.75
2023-05-21T19:36:18.467Z,19.70
2023-05-21T19:38:49.789Z,19.77
2023-05-21T19:41:17.076Z,19.71
2023-05-21T19:43:45.225Z,19.62
2023-05-21T19:46:12.123Z,19.67
2023-05-21T19:48:39.034Z,19.60
2023-05-21T19:51:05.951Z,19.48
2023-05-21T19:53:32.730Z,19.44
2023-05-21T19:55:59.844Z,19.40
2023-05-21T19:58:29.451Z,19.41
2023-05-21T20:00:59.189Z,19.40
2023-05-21T20:03:26.863Z,19.30
2023-05-21T20:05:54.214Z,19.39
2023-05-21T20:08:21.359Z,19.28
2023-05-21T20:10:50.563Z,19.28
2023-05-21T20:13:18.804Z,19.26
2023-05-21T20:15:45.604Z,19.18
2023-05-21T20:18:13.010Z,19.21
2023-05-21T20:20:41.480Z,19.17
2023-05-21T20:23:08.917Z,19.18
2023-05-21T20:25:35.841Z,18.96
2023-05-21T20:28:03.583Z,19.05
2023-05-21T20:30:34.954Z,19.02
2023-05-21T20:33:02.977Z,18.97
2023-05-21T20:35:30.112Z,19.00
2023-05-21T20:37:56.988Z,18.97
2023-05-21T20:40:23.867Z,18.98
2023-05-21T20:42:53.041Z,18.86
2023-05-21T20:45:21.079Z,18.91
2023-05-21T20:47:49.662Z,18.93
2023-05-21T20:50:17.663Z,18.83
2023-05-21T20:52:47.121Z,18.82
2023-05-21T20:55:14.634Z,18.81
2023-05-21T20:57:42.128Z,18.82
2023-05-21T21:00:11.836Z,18.77
2023-05-21T21:02:39.112Z,18.69
2023-05-21T21:05:06.451Z,18.68
2023-05-21T21:07:34.228Z,18.76
2023-05-21T21:10:01.420Z,18.69
2023-05-21T21:12:28.488Z,18.55
2023-05-21T21:14:55.643Z,18.58
2023-05-21T21:17:23.064Z,18.49
2023-05-21T21:19:50.069Z,18.51
2023-05-21T21:22:18.198Z,18.33
2023-05-21T21:24:45.552Z,18.47
2023-05-21T21:27:12.433Z,18.50
2023-05-21T21:29:39.246Z,18.40
2023-05-21T21:32:06.483Z,18.37
2023-05-21T21:34:33.248Z,18.39
2023-05-21T21:37:00.007Z,18.30
2023-05-21T21:39:26.984Z,18.29
2023-05-21T21:41:53.797Z,18.38
2023-05-21T21:44:20.604Z,18.40
2023-05-21T21:46:47.822Z,18.26
2023-05-21T21:49:17.441Z,18.35
2023-05-21T21:51:44.923Z,18.35
2023-05-21T21:54:11.989Z,18.21
2023-05-21T21:56:38.767Z,18.19
2023-05-21T21:59:05.657Z,18.25
2023-05-21T22:01:32.663Z,18.21
2023-05-21T22:03:59.688Z,18.18
2023-05-21T22:06:27.763Z,18.15
2023-05-21T22:08:54.781Z,18.05
2023-05-21T22:11:21.964Z,18.07
2023-05-21T22:13:48.907Z,18.07
2023-05-21T22:16:15.861Z,18.07
2023-05-21T22:18:42.665Z,18.10
2023-05-21T22:21:10.670Z,18.14
2023-05-21T22:23:38.583Z,18.04
2023-05-21T22:26:06.318Z,18.14
2023-05-21T22:28:33.226Z,18.12
2023-05-21T22:31:00.001Z,18.19
2023-05-21T22:33:26.955Z,18.05
2023-05-21T22:35:54.591Z,18.03
2023-05-21T22:38:22.028Z,18.04
2023-05-21T22:40:48.879Z,18.02
2023-05-21T22:43:15.858Z,18.00
2023-05-21T22:45:42.666Z,17.95
2023-05-21T22:48:09.472Z,17.87
2023-05-21T22:50:38.243Z,17.90
2023-05-21T22:53:06.091Z,17.89
2023-05-21T22:55:32.941Z,17.81
2023-05-21T22:57:59.724Z,17.70
2023-05-21T23:00:26.880Z,17.67
2023-05-21T23:02:54.765Z,17.54
2023-05-21T23:05:22.474Z,17.59
2023-05-21T23:07:49.980Z,17.41
2023-05-21T23:10:16.842Z,17.46
2023-05-21T23:12:43.670Z,17.39
2023-05-21T23:15:10.971Z,17.34
2023-05-21T23:17:38.405Z,17.28
2023-05-21T23:20:07.246Z,17.23
2023-05-21T23:22:35.346Z,17.03
2023-05-21T23:25:02.586Z,17.09
2023-05-21T23:27:29.499Z,17.03
2023-05-21T23:29:56.410Z,17.08
2023-05-21T23:32:23.633Z,17.00
2023-05-21T23:34:50.813Z,17.00
2023-05-21T23:37:17.926Z,16.93
2023-05-21T23:39:48.278Z,16.91
2023-05-21T23:42:18.696Z,16.77
2023-05-21T23:44:45.581Z,16.79
2023-05-21T23:47:12.357Z,16.77
2023-05-21T23:49:39.480Z,16.75
2023-05-21T23:52:06.794Z,16.63
2023-05-21T23:54:33.570Z,16.63
2023-05-21T23:57:00.650Z,16.70
2023-05-21T23:59:27.414Z,16.49
